New Everest — 3EUZ8 — position and weather

sailwx.info

Track history (hours):
 
Tides and Currents Weather Stations Pressure Air Temp Water Temp Dewpoint Dewpoint Depression Visibility Wind Speed Wind Dir Waves Ship Positions

New Everest

Last reported at 2017-Sep-11 03:49 UTC. Time now 2017-Sep-23 23:56 UTC.
Position N 33°42' W 123°45'.
Warning: this ship's position is 12 days out of date.

Length 176 m; draft 10.3 m.

Type: Cargo ship. MMSI: 372865000.

Date/timePositionNaut miles runAvg speedWind from/ knotsBaromVisibWave heightAir tempDewpointWater temp
2017-Sep-11 03:49N 33°42' W 123°45'310.7
2017-Sep-11 03:30N 33°42' W 123°41'510.6
2017-Sep-11 03:00N 33°42' W 123°35'510.4
2017-Sep-11 02:30N 33°42' W 123°29'710.6
2017-Sep-11 01:52N 33°42' W 123°21'610.7
2017-Sep-11 01:21N 33°41' W 123°14'410.5
2017-Sep-11 01:00N 33°41' W 123°10'510.6
2017-Sep-11 00:30N 33°41' W 123°03'510.6
2017-Sep-11 00:00N 33°42' W 122°57'510.5
2017-Sep-10 23:30N 33°42' W 122°51'510.6
2017-Sep-10 23:00N 33°41' W 122°44'510.5
2017-Sep-10 22:30N 33°41' W 122°38'510.4
2017-Sep-10 22:00N 33°41' W 122°32'510.8
2017-Sep-10 21:30N 33°41' W 122°25'511.0
2017-Sep-10 21:00N 33°41' W 122°19'611.2
2017-Sep-10 20:30N 33°41' W 122°12'611.2
2017-Sep-10 20:00N 33°41' W 122°05'611.4
2017-Sep-10 19:30N 33°41' W 121°58'611.3
2017-Sep-10 19:00N 33°41' W 121°52'611.3
2017-Sep-10 18:30N 33°41' W 121°45'611.7
2017-Sep-10 18:00N 33°41' W 121°38'611.6
2017-Sep-10 17:30N 33°41' W 121°31'611.9
2017-Sep-10 16:59N 33°41' W 121°23'611.8
2017-Sep-10 16:30N 33°41' W 121°17'612.0
2017-Sep-10 16:00N 33°41' W 121°09'612.3
2017-Sep-10 15:30N 33°41' W 121°02'611.9
2017-Sep-10 15:00N 33°41' W 120°55'1211.6
2017-Sep-10 14:00N 33°41' W 120°41'611.4
2017-Sep-10 13:30N 33°41' W 120°34'611.8
2017-Sep-10 13:00N 33°41' W 120°27'611.8
2017-Sep-10 12:30N 33°41' W 120°20'611.7
2017-Sep-10 12:00N 33°41' W 120°13'611.5
2017-Sep-10 11:30N 33°41' W 120°06'612.0
2017-Sep-10 11:00N 33°42' W 119°59'612.2
2017-Sep-10 10:30N 33°43' W 119°52'612.2
2017-Sep-10 10:00N 33°45' W 119°44'612.2
2017-Sep-10 09:30N 33°46' W 119°37'611.9
2017-Sep-10 09:00N 33°47' W 119°30'611.9
2017-Sep-10 08:30N 33°46' W 119°23'611.6
2017-Sep-10 08:00N 33°45' W 119°16'612.0
2017-Sep-10 07:30N 33°44' W 119°09'611.8
2017-Sep-10 07:00N 33°43' W 119°02'611.9
2017-Sep-10 06:30N 33°43' W 118°55'611.7
2017-Sep-10 06:00N 33°42' W 118°48'611.6
2017-Sep-10 05:30N 33°41' W 118°41'611.5
2017-Sep-10 05:00N 33°39' W 118°35'611.4
2017-Sep-10 04:30N 33°38' W 118°28'511.0
2017-Sep-10 04:00N 33°38' W 118°21'4 8.6
2017-Sep-10 03:30N 33°39' W 118°16'4 7.4
2017-Sep-10 03:00N 33°43' W 118°15'2 4.7
2017-Sep-10 02:30N 33°45' W 118°16'1 1.8
2017-Sep-10 01:58N 33°46' W 118°15'0 0.0
2017-Sep-10 01:28N 33°46' W 118°15'0 0.0
2017-Sep-10 00:58N 33°46' W 118°15'0 0.0
2017-Sep-10 00:28N 33°46' W 118°15'0 0.0
2017-Sep-09 23:58N 33°46' W 118°15'0 0.0
2017-Sep-09 23:28N 33°46' W 118°15'0 0.0
2017-Sep-09 22:58N 33°46' W 118°15'0 0.1
2017-Sep-09 22:28N 33°46' W 118°15'0 0.0
2017-Sep-09 21:58N 33°46' W 118°15'0 0.0
2017-Sep-09 21:28N 33°46' W 118°15'0 0.0
2017-Sep-09 20:58N 33°46' W 118°15'0 0.0
2017-Sep-09 20:28N 33°46' W 118°15'0 0.0
2017-Sep-09 19:58N 33°46' W 118°15'0 0.0
2017-Sep-09 19:28N 33°46' W 118°15'0 0.0
2017-Sep-09 18:58N 33°46' W 118°15'0 0.0
2017-Sep-09 18:16N 33°46' W 118°15'0 0.0
2017-Sep-09 17:58N 33°46' W 118°15'0 0.0
2017-Sep-09 17:22N 33°46' W 118°15'0 0.0
2017-Sep-09 16:58N 33°46' W 118°15'0 0.0
2017-Sep-09 16:28N 33°46' W 118°15'0 0.0
2017-Sep-09 15:55N 33°46' W 118°15'0 0.0
2017-Sep-09 15:28N 33°46' W 118°15'0 0.0
2017-Sep-09 14:58N 33°46' W 118°15'0 0.0
2017-Sep-09 14:28N 33°46' W 118°15'0 0.0
2017-Sep-09 13:58N 33°46' W 118°15'0 0.0
2017-Sep-09 13:28N 33°46' W 118°15'0 0.0
2017-Sep-09 12:58N 33°46' W 118°15'0 0.0
2017-Sep-09 12:22N 33°46' W 118°15'0 0.0
2017-Sep-09 11:04N 33°46' W 118°15'0 0.0
2017-Sep-09 10:58N 33°46' W 118°15'0 0.0
2017-Sep-09 10:28N 33°46' W 118°15'0 0.0
2017-Sep-09 09:58N 33°46' W 118°15'0 0.0
2017-Sep-09 09:28N 33°46' W 118°15'0 0.0
2017-Sep-09 08:55N 33°46' W 118°15'0 0.0
2017-Sep-09 08:28N 33°46' W 118°15'0 0.0
2017-Sep-09 07:58N 33°46' W 118°15'0 0.0
2017-Sep-09 07:28N 33°46' W 118°15'0 0.0
2017-Sep-09 06:58N 33°46' W 118°15'0 0.0
2017-Sep-09 06:28N 33°46' W 118°15'0 0.0
2017-Sep-09 05:58N 33°46' W 118°15'0 0.0
2017-Sep-09 05:28N 33°46' W 118°15'0 0.1
2017-Sep-09 04:58N 33°46' W 118°15'0 0.0
2017-Sep-09 04:28N 33°46' W 118°15'0 0.0
2017-Sep-09 03:58N 33°46' W 118°15'0 0.0
2017-Sep-09 03:28N 33°46' W 118°15'0 0.0
2017-Sep-09 02:58N 33°46' W 118°15'0 0.0
2017-Sep-09 02:25N 33°46' W 118°15'0 0.0
2017-Sep-09 01:58N 33°46' W 118°15'0 0.0
2017-Sep-09 01:28N 33°46' W 118°15'0 0.0
2017-Sep-09 00:58N 33°46' W 118°15'0 0.0
2017-Sep-09 00:28N 33°46' W 118°15'0 0.0
2017-Sep-08 23:55N 33°46' W 118°15'0 0.0
2017-Sep-08 23:19N 33°46' W 118°15'0 0.0
2017-Sep-08 22:55N 33°46' W 118°15'0 0.0
2017-Sep-08 22:28N 33°46' W 118°15'0 0.0
2017-Sep-08 21:58N 33°46' W 118°15'0 0.0
2017-Sep-08 21:25N 33°46' W 118°15'0 0.0
2017-Sep-08 20:58N 33°46' W 118°15'0 0.0
2017-Sep-08 20:28N 33°46' W 118°15'0 0.0
2017-Sep-08 19:58N 33°46' W 118°15'0 0.0
2017-Sep-08 19:28N 33°46' W 118°15'0 0.0
2017-Sep-08 18:58N 33°46' W 118°15'0 0.0
2017-Sep-08 18:28N 33°46' W 118°15'0 0.0
2017-Sep-08 17:58N 33°46' W 118°15'0 0.0
2017-Sep-08 17:28N 33°46' W 118°15'0 0.0
2017-Sep-08 16:58N 33°46' W 118°15'0 0.0
2017-Sep-08 16:25N 33°46' W 118°15'0 0.0
2017-Sep-08 15:58N 33°46' W 118°15'0 0.0
2017-Sep-08 15:28N 33°46' W 118°15'0 0.0
2017-Sep-08 14:52N 33°46' W 118°15'0 0.1
2017-Sep-08 14:22N 33°46' W 118°15'0 0.0
2017-Sep-08 13:55N 33°46' W 118°15'0 0.0
2017-Sep-08 13:28N 33°46' W 118°15'0 0.0
2017-Sep-08 12:58N 33°46' W 118°15'0 0.0
2017-Sep-08 12:28N 33°46' W 118°15'0 0.0
2017-Sep-08 11:58N 33°46' W 118°15'0 0.0
2017-Sep-08 11:28N 33°46' W 118°15'0 0.0
2017-Sep-08 10:55N 33°46' W 118°15'0 0.0
2017-Sep-08 10:28N 33°46' W 118°15'0 0.0
2017-Sep-08 09:58N 33°46' W 118°15'0 0.0
2017-Sep-08 09:28N 33°46' W 118°15'0 0.0
2017-Sep-08 08:52N 33°46' W 118°15'0 0.0
2017-Sep-08 08:28N 33°46' W 118°15'0 0.0
2017-Sep-08 07:58N 33°46' W 118°15'0 0.0
2017-Sep-08 07:25N 33°46' W 118°15'0 0.0
2017-Sep-08 06:55N 33°46' W 118°15'0 0.0
2017-Sep-08 06:28N 33°46' W 118°15'0 0.0
2017-Sep-08 05:58N 33°46' W 118°15'0 0.0
2017-Sep-08 05:28N 33°46' W 118°15'0 0.0
2017-Sep-08 04:58N 33°46' W 118°15'0 0.0
2017-Sep-08 04:28N 33°46' W 118°15'0 0.0
2017-Sep-08 03:58N 33°46' W 118°15'0 0.0
2017-Sep-08 03:28N 33°46' W 118°15'0 0.0
2017-Sep-08 02:58N 33°46' W 118°15'0 0.0
2017-Sep-08 02:28N 33°46' W 118°15'0 0.0
2017-Sep-08 01:55N 33°46' W 118°15'0 0.0
2017-Sep-08 01:28N 33°46' W 118°15'0 0.0
2017-Sep-08 00:55N 33°46' W 118°15'0 0.0
2017-Sep-08 00:28N 33°46' W 118°15'0 0.0
2017-Sep-07 23:58N 33°46' W 118°15'0 0.0
2017-Sep-07 23:28N 33°46' W 118°15'0 0.0
2017-Sep-07 22:58N 33°46' W 118°15'0 0.0
2017-Sep-07 22:28N 33°46' W 118°15'0 0.0
2017-Sep-07 21:58N 33°46' W 118°15'0 0.0
2017-Sep-07 21:28N 33°46' W 118°15'0 0.0
2017-Sep-07 20:55N 33°46' W 118°15'0 0.0
2017-Sep-07 20:28N 33°46' W 118°15'0 0.0
2017-Sep-07 19:55N 33°46' W 118°15'0 0.0
2017-Sep-07 19:28N 33°46' W 118°15'0 0.0
2017-Sep-07 18:58N 33°46' W 118°15'0 0.1
2017-Sep-07 18:28N 33°46' W 118°15'0 0.1
2017-Sep-07 17:58N 33°46' W 118°15'0 0.0
2017-Sep-07 17:28N 33°46' W 118°15'0 0.0
2017-Sep-07 16:58N 33°46' W 118°15'0 0.0
2017-Sep-07 16:28N 33°46' W 118°15'0 0.0
2017-Sep-07 15:58N 33°46' W 118°15'0 0.0
2017-Sep-07 15:28N 33°46' W 118°15'0 0.0
2017-Sep-07 14:58N 33°46' W 118°15'0 0.0
2017-Sep-07 14:28N 33°46' W 118°15'0 0.0
2017-Sep-07 13:58N 33°46' W 118°15'0 0.0
2017-Sep-07 13:28N 33°46' W 118°15'0 0.0
2017-Sep-07 12:58N 33°46' W 118°15'0 0.2
2017-Sep-07 12:28N 33°46' W 118°15'0 0.6
2017-Sep-07 11:58N 33°46' W 118°15'0 0.0
2017-Sep-07 11:28N 33°46' W 118°15'0 0.0
2017-Sep-07 10:52N 33°46' W 118°15'0 0.0
2017-Sep-07 10:28N 33°46' W 118°15'0 0.0
2017-Sep-07 09:58N 33°46' W 118°15'0 0.0
2017-Sep-07 09:28N 33°46' W 118°15'0 0.0
2017-Sep-07 08:58N 33°46' W 118°15'0 0.0
2017-Sep-07 08:25N 33°46' W 118°15'0 0.0
2017-Sep-07 07:58N 33°46' W 118°15'0 0.0
2017-Sep-07 07:25N 33°46' W 118°15'0 0.0
2017-Sep-07 06:58N 33°46' W 118°15'0 0.0
2017-Sep-07 06:28N 33°46' W 118°15'0 0.0
2017-Sep-07 05:52N 33°46' W 118°15'0 0.0
2017-Sep-07 05:28N 33°46' W 118°15'0 0.0
2017-Sep-07 04:58N 33°46' W 118°15'0 0.0
2017-Sep-07 04:22N 33°46' W 118°15'0 0.0
2017-Sep-07 03:58N 33°46' W 118°15'0 0.0
2017-Sep-07 03:19N 33°46' W 118°15'0 0.0
2017-Sep-07 02:58N 33°46' W 118°15'0 0.0
2017-Sep-07 02:28N 33°46' W 118°15'0 0.0
2017-Sep-07 01:52N 33°46' W 118°15'0 0.0
2017-Sep-07 01:28N 33°46' W 118°15'0 0.0
2017-Sep-07 00:58N 33°46' W 118°15'0 0.0
2017-Sep-07 00:28N 33°46' W 118°15'0 0.0
2017-Sep-06 23:58N 33°46' W 118°15'0 0.0
2017-Sep-06 23:28N 33°46' W 118°15'0 0.0
2017-Sep-06 22:55N 33°46' W 118°15'0 0.0
2017-Sep-06 22:25N 33°46' W 118°15'0 0.0
2017-Sep-06 21:58N 33°46' W 118°15'0 0.0
2017-Sep-06 21:28N 33°46' W 118°15'0 0.0
2017-Sep-06 20:55N 33°46' W 118°15'0 0.0
2017-Sep-06 20:28N 33°46' W 118°15'0 0.0
2017-Sep-06 19:55N 33°46' W 118°15'0 0.0
2017-Sep-06 18:49N 33°46' W 118°15'0 0.0
2017-Sep-06 18:25N 33°46' W 118°15'0 0.0
2017-Sep-06 17:55N 33°46' W 118°15'0 0.0
2017-Sep-06 17:25N 33°46' W 118°15'0 0.0
2017-Sep-06 16:49N 33°46' W 118°15'0 0.0
2017-Sep-06 16:25N 33°46' W 118°15'0 0.0
2017-Sep-06 15:55N 33°46' W 118°15'0 0.0
2017-Sep-06 15:19N 33°46' W 118°15'0 0.0
2017-Sep-06 14:58N 33°46' W 118°15'0 0.0
2017-Sep-06 14:10N 33°46' W 118°15'0 0.0
2017-Sep-06 13:58N 33°46' W 118°15'0 0.0
2017-Sep-06 13:28N 33°46' W 118°15'0 0.0
2017-Sep-06 12:58N 33°46' W 118°15'0 0.0
2017-Sep-06 12:28N 33°46' W 118°15'0 0.0
2017-Sep-06 11:58N 33°46' W 118°15'0 0.0
2017-Sep-06 10:37N 33°46' W 118°15'0 0.0
2017-Sep-06 10:16N 33°46' W 118°15'0 0.0
2017-Sep-06 09:43N 33°46' W 118°15'0 0.0
2017-Sep-06 09:28N 33°46' W 118°15'0 0.0
2017-Sep-06 08:37N 33°46' W 118°15'0 0.0
2017-Sep-06 08:28N 33°46' W 118°15'0 0.0
2017-Sep-06 07:55N 33°46' W 118°15'0 0.0
2017-Sep-06 07:13N 33°46' W 118°15'0 0.0
2017-Sep-06 06:49N 33°46' W 118°15'0 0.0
2017-Sep-06 06:22N 33°46' W 118°15'0 0.0
2017-Sep-06 05:58N 33°46' W 118°15'0 0.0
2017-Sep-06 05:22N 33°46' W 118°15'0 0.0
2017-Sep-06 04:52N 33°46' W 118°15'0 0.0
2017-Sep-06 04:13N 33°46' W 118°15'0 0.0
2017-Sep-06 03:43N 33°46' W 118°15'0 0.0
2017-Sep-06 03:28N 33°46' W 118°15'0 0.0
2017-Sep-06 02:58N 33°46' W 118°15'0 0.0
2017-Sep-06 02:25N 33°46' W 118°15'0 0.0
2017-Sep-06 01:55N 33°46' W 118°15'0 0.0
2017-Sep-06 01:22N 33°46' W 118°15'0 0.0
2017-Sep-06 00:55N 33°46' W 118°15'0 0.0
2017-Sep-06 00:25N 33°46' W 118°15'0 0.0
2017-Sep-05 23:55N 33°46' W 118°15'0 0.0
2017-Sep-05 23:25N 33°46' W 118°15'0 0.0
2017-Sep-05 22:55N 33°46' W 118°15'0 0.0
2017-Sep-05 22:25N 33°46' W 118°15'0 0.0
2017-Sep-05 21:58N 33°46' W 118°15'0 0.0
2017-Sep-05 21:28N 33°46' W 118°15'0 0.0
2017-Sep-05 20:58N 33°46' W 118°15'0 0.0
2017-Sep-05 19:13N 33°46' W 118°15'0 0.0
2017-Sep-05 18:55N 33°46' W 118°15'0 0.0
2017-Sep-05 18:28N 33°46' W 118°15'0 0.0
2017-Sep-05 17:55N 33°46' W 118°15'0 0.0
2017-Sep-05 17:22N 33°46' W 118°15'0 0.0
2017-Sep-05 16:55N 33°46' W 118°15'0 0.0
2017-Sep-05 16:28N 33°46' W 118°15'0 0.0
2017-Sep-05 15:37N 33°46' W 118°15'0 0.0
2017-Sep-05 15:25N 33°46' W 118°15'0 0.0
2017-Sep-05 09:40N 33°46' W 118°15'0 0.0
2017-Sep-05 09:22N 33°46' W 118°15'0 0.0
2017-Sep-05 08:58N 33°46' W 118°15'0 0.0
2017-Sep-05 08:28N 33°46' W 118°15'0 0.0
2017-Sep-05 07:52N 33°46' W 118°15'0 0.0
2017-Sep-05 07:22N 33°46' W 118°15'0 0.0
2017-Sep-05 06:55N 33°46' W 118°15'0 0.0
2017-Sep-05 06:10N 33°46' W 118°15'0 0.0
2017-Sep-05 05:52N 33°46' W 118°15'0 0.0
2017-Sep-05 05:16N 33°46' W 118°15'0 0.0
2017-Sep-05 03:49N 33°46' W 118°15'0 0.0
2017-Sep-05 01:13N 33°46' W 118°15'0 0.0
2017-Sep-05 00:43N 33°46' W 118°15'0 0.0
2017-Sep-05 00:13N 33°46' W 118°15'0 0.0
2017-Sep-04 23:55N 33°46' W 118°15'0 0.0
2017-Sep-04 23:25N 33°46' W 118°15'0 0.0
2017-Sep-04 22:55N 33°46' W 118°15'0 0.0
2017-Sep-04 22:19N 33°46' W 118°15'0 0.0
2017-Sep-04 21:55N 33°46' W 118°15'0 0.0
2017-Sep-04 21:25N 33°46' W 118°15'0 0.0
2017-Sep-04 20:55N 33°46' W 118°15'0 0.0
2017-Sep-04 20:01N 33°46' W 118°15'0 0.0
2017-Sep-04 19:37N 33°46' W 118°15'0 0.0
2017-Sep-04 19:25N 33°46' W 118°15'0 0.0
2017-Sep-03 21:01N 33°46' W 118°15'0 0.0
2017-Sep-03 18:13N 33°46' W 118°15'0 0.0
2017-Sep-03 17:55N 33°46' W 118°15'0 0.0
2017-Sep-03 17:28N 33°46' W 118°15'0 0.0
2017-Sep-03 16:58N 33°46' W 118°15'0 0.0
2017-Sep-03 16:04N 33°46' W 118°15'0 0.0
2017-Sep-03 15:40N 33°46' W 118°15'0 0.0
2017-Sep-03 11:49N 33°46' W 118°15'0 0.0
2017-Sep-03 11:19N 33°46' W 118°15'0 0.0
2017-Sep-03 10:19N 33°46' W 118°15'0 0.0
2017-Sep-03 09:55N 33°46' W 118°15'0 0.0
2017-Sep-03 09:25N 33°46' W 118°15'0 0.0
2017-Sep-03 08:55N 33°46' W 118°15'0 0.0
2017-Sep-03 08:25N 33°46' W 118°15'0 0.0
2017-Sep-03 07:55N 33°46' W 118°15'0 0.0
2017-Sep-03 07:28N 33°46' W 118°15'0 0.0
2017-Sep-03 06:58N 33°46' W 118°15'0 0.0
2017-Sep-03 06:28N 33°46' W 118°15'0 0.0
2017-Sep-03 05:58N 33°46' W 118°15'0 0.0
2017-Sep-03 05:28N 33°46' W 118°15'0 0.0
2017-Sep-03 04:58N 33°46' W 118°15'0 0.0
2017-Sep-03 04:28N 33°46' W 118°15'0 0.0
2017-Sep-03 03:58N 33°46' W 118°15'0 0.0
2017-Sep-03 03:28N 33°46' W 118°15'0 0.0
2017-Sep-03 02:58N 33°46' W 118°15'0 0.0
2017-Sep-03 02:28N 33°46' W 118°15'0 0.0
2017-Sep-03 01:58N 33°46' W 118°15'0 0.0
2017-Sep-03 01:28N 33°46' W 118°15'0 0.0
2017-Sep-03 00:58N 33°46' W 118°15'0 0.0
2017-Sep-03 00:28N 33°46' W 118°15'0 0.0
2017-Sep-02 23:58N 33°46' W 118°15'0 0.0
2017-Sep-02 23:28N 33°46' W 118°15'0 0.0
2017-Sep-02 22:58N 33°46' W 118°15'0 0.0
2017-Sep-02 22:28N 33°46' W 118°15'0 0.0
2017-Sep-02 21:55N 33°46' W 118°15'0 0.0
2017-Sep-02 21:25N 33°46' W 118°15'0 0.0
2017-Sep-02 20:55N 33°46' W 118°15'0 0.0
2017-Sep-02 20:28N 33°46' W 118°15'0 0.0
2017-Sep-02 19:58N 33°46' W 118°15'0 0.0
2017-Sep-02 19:28N 33°46' W 118°15'0 0.0
2017-Sep-02 18:58N 33°46' W 118°15'0 0.0
2017-Sep-02 18:28N 33°46' W 118°15'0 0.0
2017-Sep-02 17:58N 33°46' W 118°15'0 0.0
2017-Sep-02 17:28N 33°46' W 118°15'0 0.0
2017-Sep-02 16:58N 33°46' W 118°15'0 0.0
2017-Sep-02 16:25N 33°46' W 118°15'0 0.0
2017-Sep-02 15:58N 33°46' W 118°15'0 0.0
2017-Sep-02 15:25N 33°46' W 118°15'0 0.0
2017-Sep-02 14:58N 33°46' W 118°15'0 0.0
2017-Sep-02 14:25N 33°46' W 118°15'0 0.0
2017-Sep-02 13:58N 33°46' W 118°15'0 0.0
2017-Sep-02 13:28N 33°46' W 118°15'0 0.0
2017-Sep-02 12:55N 33°46' W 118°15'0 0.0
2017-Sep-02 12:28N 33°46' W 118°15'0 0.0
2017-Sep-02 11:55N 33°46' W 118°15'0 0.0
2017-Sep-02 11:28N 33°46' W 118°15'0 0.0
2017-Sep-02 10:43N 33°46' W 118°15'0 0.0
2017-Sep-02 10:13N 33°46' W 118°15'0 0.0
2017-Sep-02 09:58N 33°46' W 118°15'0 0.0
2017-Sep-02 09:28N 33°46' W 118°15'0 0.0
2017-Sep-02 08:58N 33°46' W 118°15'0 0.0
2017-Sep-02 08:28N 33°46' W 118°15'0 0.0
2017-Sep-02 07:58N 33°46' W 118°15'0 0.0
2017-Sep-02 07:28N 33°46' W 118°15'0 0.0
2017-Sep-02 06:55N 33°46' W 118°15'0 0.0
2017-Sep-02 06:28N 33°46' W 118°15'0 0.0
2017-Sep-02 05:58N 33°46' W 118°15'0 0.0
2017-Sep-02 05:28N 33°46' W 118°15'0 0.0
2017-Sep-02 04:55N 33°46' W 118°15'0 0.0
2017-Sep-02 04:28N 33°46' W 118°15'0 0.0
2017-Sep-02 03:58N 33°46' W 118°15'0 0.0
2017-Sep-02 03:28N 33°46' W 118°15'0 0.0
2017-Sep-02 02:58N 33°46' W 118°15'0 0.0
2017-Sep-02 02:28N 33°46' W 118°15'0 0.0
2017-Sep-02 01:58N 33°46' W 118°15'0 0.0
2017-Sep-02 01:22N 33°46' W 118°15'0 0.0
2017-Sep-02 00:37N 33°46' W 118°15'0 0.0
2017-Sep-02 00:19N 33°46' W 118°15'0 0.0
2017-Sep-01 23:58N 33°46' W 118°15'0 0.0
2017-Sep-01 23:28N 33°46' W 118°15'0 0.0
2017-Sep-01 22:55N 33°46' W 118°15'0 0.0
2017-Sep-01 22:25N 33°46' W 118°15'0 0.0
2017-Sep-01 21:58N 33°46' W 118°15'0 0.0
2017-Sep-01 21:28N 33°46' W 118°15'0 0.0
2017-Sep-01 20:58N 33°46' W 118°15'0 0.0
2017-Sep-01 20:25N 33°46' W 118°15'0 0.0
2017-Sep-01 19:58N 33°46' W 118°15'0 0.0
2017-Sep-01 19:28N 33°46' W 118°15'0 0.0
2017-Sep-01 18:58N 33°46' W 118°15'0 0.0
2017-Sep-01 18:28N 33°46' W 118°15'0 0.0
2017-Sep-01 17:58N 33°46' W 118°15'0 0.0
2017-Sep-01 17:28N 33°46' W 118°15'0 0.0
2017-Sep-01 16:58N 33°46' W 118°15'0 0.0
2017-Sep-01 16:25N 33°46' W 118°15'0 0.0
2017-Sep-01 15:58N 33°46' W 118°15'0 0.0
2017-Sep-01 15:25N 33°46' W 118°15'0 0.0
2017-Sep-01 14:58N 33°46' W 118°15'0 0.0
2017-Sep-01 14:28N 33°46' W 118°15'0 0.0
2017-Sep-01 13:58N 33°46' W 118°15'0 0.0
2017-Sep-01 13:13N 33°46' W 118°15'0 0.0
2017-Sep-01 12:58N 33°46' W 118°15'0 0.0
2017-Sep-01 12:28N 33°46' W 118°15'0 0.0
2017-Sep-01 11:58N 33°46' W 118°15'0 0.0
2017-Sep-01 11:25N 33°46' W 118°15'0 0.0
2017-Sep-01 10:58N 33°46' W 118°15'0 0.0
2017-Sep-01 10:25N 33°46' W 118°15'0 0.0
2017-Sep-01 09:55N 33°46' W 118°15'0 0.0
2017-Sep-01 09:28N 33°46' W 118°15'0 0.0
2017-Sep-01 08:58N 33°46' W 118°15'0 0.0
2017-Sep-01 08:28N 33°46' W 118°15'0 0.0
2017-Sep-01 07:58N 33°46' W 118°15'0 0.0
2017-Sep-01 07:28N 33°46' W 118°15'0 0.0
2017-Sep-01 06:58N 33°46' W 118°15'0 0.0
2017-Sep-01 06:28N 33°46' W 118°15'0 0.0
2017-Sep-01 05:52N 33°46' W 118°15'0 0.0
2017-Sep-01 05:28N 33°46' W 118°15'0 0.0
2017-Sep-01 04:58N 33°46' W 118°15'0 0.0
2017-Sep-01 04:25N 33°46' W 118°15'0 0.0
2017-Sep-01 03:52N 33°46' W 118°15'  
Track history (hours):
 
Tides and Currents Weather Stations Pressure Air Temp Water Temp Dewpoint Dewpoint Depression Visibility Wind Speed Wind Dir Waves Ship Positions

New Everest

Last reported at 2017-Sep-11 03:49 UTC. Time now 2017-Sep-23 23:56 UTC.
Position N 33°42' W 123°45'.
Warning: this ship's position is 12 days out of date.

Length 176 m; draft 10.3 m.

Type: Cargo ship. MMSI: 372865000.

Date/timePositionNaut miles runAvg speedWind from/ knotsBaromVisibWave heightAir tempDewpointWater temp
2017-Sep-11 03:49N 33°42' W 123°45'310.7
2017-Sep-11 03:30N 33°42' W 123°41'510.6
2017-Sep-11 03:00N 33°42' W 123°35'510.4
2017-Sep-11 02:30N 33°42' W 123°29'710.6
2017-Sep-11 01:52N 33°42' W 123°21'610.7
2017-Sep-11 01:21N 33°41' W 123°14'410.5
2017-Sep-11 01:00N 33°41' W 123°10'510.6
2017-Sep-11 00:30N 33°41' W 123°03'510.6
2017-Sep-11 00:00N 33°42' W 122°57'510.5
2017-Sep-10 23:30N 33°42' W 122°51'510.6
2017-Sep-10 23:00N 33°41' W 122°44'510.5
2017-Sep-10 22:30N 33°41' W 122°38'510.4
2017-Sep-10 22:00N 33°41' W 122°32'510.8
2017-Sep-10 21:30N 33°41' W 122°25'511.0
2017-Sep-10 21:00N 33°41' W 122°19'611.2
2017-Sep-10 20:30N 33°41' W 122°12'611.2
2017-Sep-10 20:00N 33°41' W 122°05'611.4
2017-Sep-10 19:30N 33°41' W 121°58'611.3
2017-Sep-10 19:00N 33°41' W 121°52'611.3
2017-Sep-10 18:30N 33°41' W 121°45'611.7
2017-Sep-10 18:00N 33°41' W 121°38'611.6
2017-Sep-10 17:30N 33°41' W 121°31'611.9
2017-Sep-10 16:59N 33°41' W 121°23'611.8
2017-Sep-10 16:30N 33°41' W 121°17'612.0
2017-Sep-10 16:00N 33°41' W 121°09'612.3
2017-Sep-10 15:30N 33°41' W 121°02'611.9
2017-Sep-10 15:00N 33°41' W 120°55'1211.6
2017-Sep-10 14:00N 33°41' W 120°41'611.4
2017-Sep-10 13:30N 33°41' W 120°34'611.8
2017-Sep-10 13:00N 33°41' W 120°27'611.8
2017-Sep-10 12:30N 33°41' W 120°20'611.7
2017-Sep-10 12:00N 33°41' W 120°13'611.5
2017-Sep-10 11:30N 33°41' W 120°06'612.0
2017-Sep-10 11:00N 33°42' W 119°59'612.2
2017-Sep-10 10:30N 33°43' W 119°52'612.2
2017-Sep-10 10:00N 33°45' W 119°44'612.2
2017-Sep-10 09:30N 33°46' W 119°37'611.9
2017-Sep-10 09:00N 33°47' W 119°30'611.9
2017-Sep-10 08:30N 33°46' W 119°23'611.6
2017-Sep-10 08:00N 33°45' W 119°16'612.0
2017-Sep-10 07:30N 33°44' W 119°09'611.8
2017-Sep-10 07:00N 33°43' W 119°02'611.9
2017-Sep-10 06:30N 33°43' W 118°55'611.7
2017-Sep-10 06:00N 33°42' W 118°48'611.6
2017-Sep-10 05:30N 33°41' W 118°41'611.5
2017-Sep-10 05:00N 33°39' W 118°35'611.4
2017-Sep-10 04:30N 33°38' W 118°28'511.0
2017-Sep-10 04:00N 33°38' W 118°21'4 8.6
2017-Sep-10 03:30N 33°39' W 118°16'4 7.4
2017-Sep-10 03:00N 33°43' W 118°15'2 4.7
2017-Sep-10 02:30N 33°45' W 118°16'1 1.8
2017-Sep-10 01:58N 33°46' W 118°15'0 0.0
2017-Sep-10 01:28N 33°46' W 118°15'0 0.0
2017-Sep-10 00:58N 33°46' W 118°15'0 0.0
2017-Sep-10 00:28N 33°46' W 118°15'0 0.0
2017-Sep-09 23:58N 33°46' W 118°15'0 0.0
2017-Sep-09 23:28N 33°46' W 118°15'0 0.0
2017-Sep-09 22:58N 33°46' W 118°15'0 0.1
2017-Sep-09 22:28N 33°46' W 118°15'0 0.0
2017-Sep-09 21:58N 33°46' W 118°15'0 0.0
2017-Sep-09 21:28N 33°46' W 118°15'0 0.0
2017-Sep-09 20:58N 33°46' W 118°15'0 0.0
2017-Sep-09 20:28N 33°46' W 118°15'0 0.0
2017-Sep-09 19:58N 33°46' W 118°15'0 0.0
2017-Sep-09 19:28N 33°46' W 118°15'0 0.0
2017-Sep-09 18:58N 33°46' W 118°15'0 0.0
2017-Sep-09 18:16N 33°46' W 118°15'0 0.0
2017-Sep-09 17:58N 33°46' W 118°15'0 0.0
2017-Sep-09 17:22N 33°46' W 118°15'0 0.0
2017-Sep-09 16:58N 33°46' W 118°15'0 0.0
2017-Sep-09 16:28N 33°46' W 118°15'0 0.0
2017-Sep-09 15:55N 33°46' W 118°15'0 0.0
2017-Sep-09 15:28N 33°46' W 118°15'0 0.0
2017-Sep-09 14:58N 33°46' W 118°15'0 0.0
2017-Sep-09 14:28N 33°46' W 118°15'0 0.0
2017-Sep-09 13:58N 33°46' W 118°15'0 0.0
2017-Sep-09 13:28N 33°46' W 118°15'0 0.0
2017-Sep-09 12:58N 33°46' W 118°15'0 0.0
2017-Sep-09 12:22N 33°46' W 118°15'0 0.0
2017-Sep-09 11:04N 33°46' W 118°15'0 0.0
2017-Sep-09 10:58N 33°46' W 118°15'0 0.0
2017-Sep-09 10:28N 33°46' W 118°15'0 0.0
2017-Sep-09 09:58N 33°46' W 118°15'0 0.0
2017-Sep-09 09:28N 33°46' W 118°15'0 0.0
2017-Sep-09 08:55N 33°46' W 118°15'0 0.0
2017-Sep-09 08:28N 33°46' W 118°15'0 0.0
2017-Sep-09 07:58N 33°46' W 118°15'0 0.0
2017-Sep-09 07:28N 33°46' W 118°15'0 0.0
2017-Sep-09 06:58N 33°46' W 118°15'0 0.0
2017-Sep-09 06:28N 33°46' W 118°15'0 0.0
2017-Sep-09 05:58N 33°46' W 118°15'0 0.0
2017-Sep-09 05:28N 33°46' W 118°15'0 0.1
2017-Sep-09 04:58N 33°46' W 118°15'0 0.0
2017-Sep-09 04:28N 33°46' W 118°15'0 0.0
2017-Sep-09 03:58N 33°46' W 118°15'0 0.0
2017-Sep-09 03:28N 33°46' W 118°15'0 0.0
2017-Sep-09 02:58N 33°46' W 118°15'0 0.0
2017-Sep-09 02:25N 33°46' W 118°15'0 0.0
2017-Sep-09 01:58N 33°46' W 118°15'0 0.0
2017-Sep-09 01:28N 33°46' W 118°15'0 0.0
2017-Sep-09 00:58N 33°46' W 118°15'0 0.0
2017-Sep-09 00:28N 33°46' W 118°15'0 0.0
2017-Sep-08 23:55N 33°46' W 118°15'0 0.0
2017-Sep-08 23:19N 33°46' W 118°15'0 0.0
2017-Sep-08 22:55N 33°46' W 118°15'0 0.0
2017-Sep-08 22:28N 33°46' W 118°15'0 0.0
2017-Sep-08 21:58N 33°46' W 118°15'0 0.0
2017-Sep-08 21:25N 33°46' W 118°15'0 0.0
2017-Sep-08 20:58N 33°46' W 118°15'0 0.0
2017-Sep-08 20:28N 33°46' W 118°15'0 0.0
2017-Sep-08 19:58N 33°46' W 118°15'0 0.0
2017-Sep-08 19:28N 33°46' W 118°15'0 0.0
2017-Sep-08 18:58N 33°46' W 118°15'0 0.0
2017-Sep-08 18:28N 33°46' W 118°15'0 0.0
2017-Sep-08 17:58N 33°46' W 118°15'0 0.0
2017-Sep-08 17:28N 33°46' W 118°15'0 0.0
2017-Sep-08 16:58N 33°46' W 118°15'0 0.0
2017-Sep-08 16:25N 33°46' W 118°15'0 0.0
2017-Sep-08 15:58N 33°46' W 118°15'0 0.0
2017-Sep-08 15:28N 33°46' W 118°15'0 0.0
2017-Sep-08 14:52N 33°46' W 118°15'0 0.1
2017-Sep-08 14:22N 33°46' W 118°15'0 0.0
2017-Sep-08 13:55N 33°46' W 118°15'0 0.0
2017-Sep-08 13:28N 33°46' W 118°15'0 0.0
2017-Sep-08 12:58N 33°46' W 118°15'0 0.0
2017-Sep-08 12:28N 33°46' W 118°15'0 0.0
2017-Sep-08 11:58N 33°46' W 118°15'0 0.0
2017-Sep-08 11:28N 33°46' W 118°15'0 0.0
2017-Sep-08 10:55N 33°46' W 118°15'0 0.0
2017-Sep-08 10:28N 33°46' W 118°15'0 0.0
2017-Sep-08 09:58N 33°46' W 118°15'0 0.0
2017-Sep-08 09:28N 33°46' W 118°15'0 0.0
2017-Sep-08 08:52N 33°46' W 118°15'0 0.0
2017-Sep-08 08:28N 33°46' W 118°15'0 0.0
2017-Sep-08 07:58N 33°46' W 118°15'0 0.0
2017-Sep-08 07:25N 33°46' W 118°15'0 0.0
2017-Sep-08 06:55N 33°46' W 118°15'0 0.0
2017-Sep-08 06:28N 33°46' W 118°15'0 0.0
2017-Sep-08 05:58N 33°46' W 118°15'0 0.0
2017-Sep-08 05:28N 33°46' W 118°15'0 0.0
2017-Sep-08 04:58N 33°46' W 118°15'0 0.0
2017-Sep-08 04:28N 33°46' W 118°15'0 0.0
2017-Sep-08 03:58N 33°46' W 118°15'0 0.0
2017-Sep-08 03:28N 33°46' W 118°15'0 0.0
2017-Sep-08 02:58N 33°46' W 118°15'0 0.0
2017-Sep-08 02:28N 33°46' W 118°15'0 0.0
2017-Sep-08 01:55N 33°46' W 118°15'0 0.0
2017-Sep-08 01:28N 33°46' W 118°15'0 0.0
2017-Sep-08 00:55N 33°46' W 118°15'0 0.0
2017-Sep-08 00:28N 33°46' W 118°15'0 0.0
2017-Sep-07 23:58N 33°46' W 118°15'0 0.0
2017-Sep-07 23:28N 33°46' W 118°15'0 0.0
2017-Sep-07 22:58N 33°46' W 118°15'0 0.0
2017-Sep-07 22:28N 33°46' W 118°15'0 0.0
2017-Sep-07 21:58N 33°46' W 118°15'0 0.0
2017-Sep-07 21:28N 33°46' W 118°15'0 0.0
2017-Sep-07 20:55N 33°46' W 118°15'0 0.0
2017-Sep-07 20:28N 33°46' W 118°15'0 0.0
2017-Sep-07 19:55N 33°46' W 118°15'0 0.0
2017-Sep-07 19:28N 33°46' W 118°15'0 0.0
2017-Sep-07 18:58N 33°46' W 118°15'0 0.1
2017-Sep-07 18:28N 33°46' W 118°15'0 0.1
2017-Sep-07 17:58N 33°46' W 118°15'0 0.0
2017-Sep-07 17:28N 33°46' W 118°15'0 0.0
2017-Sep-07 16:58N 33°46' W 118°15'0 0.0
2017-Sep-07 16:28N 33°46' W 118°15'0 0.0
2017-Sep-07 15:58N 33°46' W 118°15'0 0.0
2017-Sep-07 15:28N 33°46' W 118°15'0 0.0
2017-Sep-07 14:58N 33°46' W 118°15'0 0.0
2017-Sep-07 14:28N 33°46' W 118°15'0 0.0
2017-Sep-07 13:58N 33°46' W 118°15'0 0.0
2017-Sep-07 13:28N 33°46' W 118°15'0 0.0
2017-Sep-07 12:58N 33°46' W 118°15'0 0.2
2017-Sep-07 12:28N 33°46' W 118°15'0 0.6
2017-Sep-07 11:58N 33°46' W 118°15'0 0.0
2017-Sep-07 11:28N 33°46' W 118°15'0 0.0
2017-Sep-07 10:52N 33°46' W 118°15'0 0.0
2017-Sep-07 10:28N 33°46' W 118°15'0 0.0
2017-Sep-07 09:58N 33°46' W 118°15'0 0.0
2017-Sep-07 09:28N 33°46' W 118°15'0 0.0
2017-Sep-07 08:58N 33°46' W 118°15'0 0.0
2017-Sep-07 08:25N 33°46' W 118°15'0 0.0
2017-Sep-07 07:58N 33°46' W 118°15'0 0.0
2017-Sep-07 07:25N 33°46' W 118°15'0 0.0
2017-Sep-07 06:58N 33°46' W 118°15'0 0.0
2017-Sep-07 06:28N 33°46' W 118°15'0 0.0
2017-Sep-07 05:52N 33°46' W 118°15'0 0.0
2017-Sep-07 05:28N 33°46' W 118°15'0 0.0
2017-Sep-07 04:58N 33°46' W 118°15'0 0.0
2017-Sep-07 04:22N 33°46' W 118°15'0 0.0
2017-Sep-07 03:58N 33°46' W 118°15'0 0.0
2017-Sep-07 03:19N 33°46' W 118°15'0 0.0
2017-Sep-07 02:58N 33°46' W 118°15'0 0.0
2017-Sep-07 02:28N 33°46' W 118°15'0 0.0
2017-Sep-07 01:52N 33°46' W 118°15'0 0.0
2017-Sep-07 01:28N 33°46' W 118°15'0 0.0
2017-Sep-07 00:58N 33°46' W 118°15'0 0.0
2017-Sep-07 00:28N 33°46' W 118°15'0 0.0
2017-Sep-06 23:58N 33°46' W 118°15'0 0.0
2017-Sep-06 23:28N 33°46' W 118°15'0 0.0
2017-Sep-06 22:55N 33°46' W 118°15'0 0.0
2017-Sep-06 22:25N 33°46' W 118°15'0 0.0
2017-Sep-06 21:58N 33°46' W 118°15'0 0.0
2017-Sep-06 21:28N 33°46' W 118°15'0 0.0
2017-Sep-06 20:55N 33°46' W 118°15'0 0.0
2017-Sep-06 20:28N 33°46' W 118°15'0 0.0
2017-Sep-06 19:55N 33°46' W 118°15'0 0.0
2017-Sep-06 18:49N 33°46' W 118°15'0 0.0
2017-Sep-06 18:25N 33°46' W 118°15'0 0.0
2017-Sep-06 17:55N 33°46' W 118°15'0 0.0
2017-Sep-06 17:25N 33°46' W 118°15'0 0.0
2017-Sep-06 16:49N 33°46' W 118°15'0 0.0
2017-Sep-06 16:25N 33°46' W 118°15'0 0.0
2017-Sep-06 15:55N 33°46' W 118°15'0 0.0
2017-Sep-06 15:19N 33°46' W 118°15'0 0.0
2017-Sep-06 14:58N 33°46' W 118°15'0 0.0
2017-Sep-06 14:10N 33°46' W 118°15'0 0.0
2017-Sep-06 13:58N 33°46' W 118°15'0 0.0
2017-Sep-06 13:28N 33°46' W 118°15'0 0.0
2017-Sep-06 12:58N 33°46' W 118°15'0 0.0
2017-Sep-06 12:28N 33°46' W 118°15'0 0.0
2017-Sep-06 11:58N 33°46' W 118°15'0 0.0
2017-Sep-06 10:37N 33°46' W 118°15'0 0.0
2017-Sep-06 10:16N 33°46' W 118°15'0 0.0
2017-Sep-06 09:43N 33°46' W 118°15'0 0.0
2017-Sep-06 09:28N 33°46' W 118°15'0 0.0
2017-Sep-06 08:37N 33°46' W 118°15'0 0.0
2017-Sep-06 08:28N 33°46' W 118°15'0 0.0
2017-Sep-06 07:55N 33°46' W 118°15'0 0.0
2017-Sep-06 07:13N 33°46' W 118°15'0 0.0
2017-Sep-06 06:49N 33°46' W 118°15'0 0.0
2017-Sep-06 06:22N 33°46' W 118°15'0 0.0
2017-Sep-06 05:58N 33°46' W 118°15'0 0.0
2017-Sep-06 05:22N 33°46' W 118°15'0 0.0
2017-Sep-06 04:52N 33°46' W 118°15'0 0.0
2017-Sep-06 04:13N 33°46' W 118°15'0 0.0
2017-Sep-06 03:43N 33°46' W 118°15'0 0.0
2017-Sep-06 03:28N 33°46' W 118°15'0 0.0
2017-Sep-06 02:58N 33°46' W 118°15'0 0.0
2017-Sep-06 02:25N 33°46' W 118°15'0 0.0
2017-Sep-06 01:55N 33°46' W 118°15'0 0.0
2017-Sep-06 01:22N 33°46' W 118°15'0 0.0
2017-Sep-06 00:55N 33°46' W 118°15'0 0.0
2017-Sep-06 00:25N 33°46' W 118°15'0 0.0
2017-Sep-05 23:55N 33°46' W 118°15'0 0.0
2017-Sep-05 23:25N 33°46' W 118°15'0 0.0
2017-Sep-05 22:55N 33°46' W 118°15'0 0.0
2017-Sep-05 22:25N 33°46' W 118°15'0 0.0
2017-Sep-05 21:58N 33°46' W 118°15'0 0.0
2017-Sep-05 21:28N 33°46' W 118°15'0 0.0
2017-Sep-05 20:58N 33°46' W 118°15'0 0.0
2017-Sep-05 19:13N 33°46' W 118°15'0 0.0
2017-Sep-05 18:55N 33°46' W 118°15'0 0.0
2017-Sep-05 18:28N 33°46' W 118°15'0 0.0
2017-Sep-05 17:55N 33°46' W 118°15'0 0.0
2017-Sep-05 17:22N 33°46' W 118°15'0 0.0
2017-Sep-05 16:55N 33°46' W 118°15'0 0.0
2017-Sep-05 16:28N 33°46' W 118°15'0 0.0
2017-Sep-05 15:37N 33°46' W 118°15'0 0.0
2017-Sep-05 15:25N 33°46' W 118°15'0 0.0
2017-Sep-05 09:40N 33°46' W 118°15'0 0.0
2017-Sep-05 09:22N 33°46' W 118°15'0 0.0
2017-Sep-05 08:58N 33°46' W 118°15'0 0.0
2017-Sep-05 08:28N 33°46' W 118°15'0 0.0
2017-Sep-05 07:52N 33°46' W 118°15'0 0.0
2017-Sep-05 07:22N 33°46' W 118°15'0 0.0
2017-Sep-05 06:55N 33°46' W 118°15'0 0.0
2017-Sep-05 06:10N 33°46' W 118°15'0 0.0
2017-Sep-05 05:52N 33°46' W 118°15'0 0.0
2017-Sep-05 05:16N 33°46' W 118°15'0 0.0
2017-Sep-05 03:49N 33°46' W 118°15'0 0.0
2017-Sep-05 01:13N 33°46' W 118°15'0 0.0
2017-Sep-05 00:43N 33°46' W 118°15'0 0.0
2017-Sep-05 00:13N 33°46' W 118°15'0 0.0
2017-Sep-04 23:55N 33°46' W 118°15'0 0.0
2017-Sep-04 23:25N 33°46' W 118°15'0 0.0
2017-Sep-04 22:55N 33°46' W 118°15'0 0.0
2017-Sep-04 22:19N 33°46' W 118°15'0 0.0
2017-Sep-04 21:55N 33°46' W 118°15'0 0.0
2017-Sep-04 21:25N 33°46' W 118°15'0 0.0
2017-Sep-04 20:55N 33°46' W 118°15'0 0.0
2017-Sep-04 20:01N 33°46' W 118°15'0 0.0
2017-Sep-04 19:37N 33°46' W 118°15'0 0.0
2017-Sep-04 19:25N 33°46' W 118°15'0 0.0
2017-Sep-03 21:01N 33°46' W 118°15'0 0.0
2017-Sep-03 18:13N 33°46' W 118°15'0 0.0
2017-Sep-03 17:55N 33°46' W 118°15'0 0.0
2017-Sep-03 17:28N 33°46' W 118°15'0 0.0
2017-Sep-03 16:58N 33°46' W 118°15'0 0.0
2017-Sep-03 16:04N 33°46' W 118°15'0 0.0
2017-Sep-03 15:40N 33°46' W 118°15'0 0.0
2017-Sep-03 11:49N 33°46' W 118°15'0 0.0
2017-Sep-03 11:19N 33°46' W 118°15'0 0.0
2017-Sep-03 10:19N 33°46' W 118°15'0 0.0
2017-Sep-03 09:55N 33°46' W 118°15'0 0.0
2017-Sep-03 09:25N 33°46' W 118°15'0 0.0
2017-Sep-03 08:55N 33°46' W 118°15'0 0.0
2017-Sep-03 08:25N 33°46' W 118°15'0 0.0
2017-Sep-03 07:55N 33°46' W 118°15'0 0.0
2017-Sep-03 07:28N 33°46' W 118°15'0 0.0
2017-Sep-03 06:58N 33°46' W 118°15'0 0.0
2017-Sep-03 06:28N 33°46' W 118°15'0 0.0
2017-Sep-03 05:58N 33°46' W 118°15'0 0.0
2017-Sep-03 05:28N 33°46' W 118°15'0 0.0
2017-Sep-03 04:58N 33°46' W 118°15'0 0.0
2017-Sep-03 04:28N 33°46' W 118°15'0 0.0
2017-Sep-03 03:58N 33°46' W 118°15'0 0.0
2017-Sep-03 03:28N 33°46' W 118°15'0 0.0
2017-Sep-03 02:58N 33°46' W 118°15'0 0.0
2017-Sep-03 02:28N 33°46' W 118°15'0 0.0
2017-Sep-03 01:58N 33°46' W 118°15'0 0.0
2017-Sep-03 01:28N 33°46' W 118°15'0 0.0
2017-Sep-03 00:58N 33°46' W 118°15'0 0.0
2017-Sep-03 00:28N 33°46' W 118°15'0 0.0
2017-Sep-02 23:58N 33°46' W 118°15'0 0.0
2017-Sep-02 23:28N 33°46' W 118°15'0 0.0
2017-Sep-02 22:58N 33°46' W 118°15'0 0.0
2017-Sep-02 22:28N 33°46' W 118°15'0 0.0
2017-Sep-02 21:55N 33°46' W 118°15'0 0.0
2017-Sep-02 21:25N 33°46' W 118°15'0 0.0
2017-Sep-02 20:55N 33°46' W 118°15'0 0.0
2017-Sep-02 20:28N 33°46' W 118°15'0 0.0
2017-Sep-02 19:58N 33°46' W 118°15'0 0.0
2017-Sep-02 19:28N 33°46' W 118°15'0 0.0
2017-Sep-02 18:58N 33°46' W 118°15'0 0.0
2017-Sep-02 18:28N 33°46' W 118°15'0 0.0
2017-Sep-02 17:58N 33°46' W 118°15'0 0.0
2017-Sep-02 17:28N 33°46' W 118°15'0 0.0
2017-Sep-02 16:58N 33°46' W 118°15'0 0.0
2017-Sep-02 16:25N 33°46' W 118°15'0 0.0
2017-Sep-02 15:58N 33°46' W 118°15'0 0.0
2017-Sep-02 15:25N 33°46' W 118°15'0 0.0
2017-Sep-02 14:58N 33°46' W 118°15'0 0.0
2017-Sep-02 14:25N 33°46' W 118°15'0 0.0
2017-Sep-02 13:58N 33°46' W 118°15'0 0.0
2017-Sep-02 13:28N 33°46' W 118°15'0 0.0
2017-Sep-02 12:55N 33°46' W 118°15'0 0.0
2017-Sep-02 12:28N 33°46' W 118°15'0 0.0
2017-Sep-02 11:55N 33°46' W 118°15'0 0.0
2017-Sep-02 11:28N 33°46' W 118°15'0 0.0
2017-Sep-02 10:43N 33°46' W 118°15'0 0.0
2017-Sep-02 10:13N 33°46' W 118°15'0 0.0
2017-Sep-02 09:58N 33°46' W 118°15'0 0.0
2017-Sep-02 09:28N 33°46' W 118°15'0 0.0
2017-Sep-02 08:58N 33°46' W 118°15'0 0.0
2017-Sep-02 08:28N 33°46' W 118°15'0 0.0
2017-Sep-02 07:58N 33°46' W 118°15'0 0.0
2017-Sep-02 07:28N 33°46' W 118°15'0 0.0
2017-Sep-02 06:55N 33°46' W 118°15'0 0.0
2017-Sep-02 06:28N 33°46' W 118°15'0 0.0
2017-Sep-02 05:58N 33°46' W 118°15'0 0.0
2017-Sep-02 05:28N 33°46' W 118°15'0 0.0
2017-Sep-02 04:55N 33°46' W 118°15'0 0.0
2017-Sep-02 04:28N 33°46' W 118°15'0 0.0
2017-Sep-02 03:58N 33°46' W 118°15'0 0.0
2017-Sep-02 03:28N 33°46' W 118°15'0 0.0
2017-Sep-02 02:58N 33°46' W 118°15'0 0.0
2017-Sep-02 02:28N 33°46' W 118°15'0 0.0
2017-Sep-02 01:58N 33°46' W 118°15'0 0.0
2017-Sep-02 01:22N 33°46' W 118°15'0 0.0
2017-Sep-02 00:37N 33°46' W 118°15'0 0.0
2017-Sep-02 00:19N 33°46' W 118°15'0 0.0
2017-Sep-01 23:58N 33°46' W 118°15'0 0.0
2017-Sep-01 23:28N 33°46' W 118°15'0 0.0
2017-Sep-01 22:55N 33°46' W 118°15'0 0.0
2017-Sep-01 22:25N 33°46' W 118°15'0 0.0
2017-Sep-01 21:58N 33°46' W 118°15'0 0.0
2017-Sep-01 21:28N 33°46' W 118°15'0 0.0
2017-Sep-01 20:58N 33°46' W 118°15'0 0.0
2017-Sep-01 20:25N 33°46' W 118°15'0 0.0
2017-Sep-01 19:58N 33°46' W 118°15'0 0.0
2017-Sep-01 19:28N 33°46' W 118°15'0 0.0
2017-Sep-01 18:58N 33°46' W 118°15'0 0.0
2017-Sep-01 18:28N 33°46' W 118°15'0 0.0
2017-Sep-01 17:58N 33°46' W 118°15'0 0.0
2017-Sep-01 17:28N 33°46' W 118°15'0 0.0
2017-Sep-01 16:58N 33°46' W 118°15'0 0.0
2017-Sep-01 16:25N 33°46' W 118°15'0 0.0
2017-Sep-01 15:58N 33°46' W 118°15'0 0.0
2017-Sep-01 15:25N 33°46' W 118°15'0 0.0
2017-Sep-01 14:58N 33°46' W 118°15'0 0.0
2017-Sep-01 14:28N 33°46' W 118°15'0 0.0
2017-Sep-01 13:58N 33°46' W 118°15'0 0.0
2017-Sep-01 13:13N 33°46' W 118°15'0 0.0
2017-Sep-01 12:58N 33°46' W 118°15'0 0.0
2017-Sep-01 12:28N 33°46' W 118°15'0 0.0
2017-Sep-01 11:58N 33°46' W 118°15'0 0.0
2017-Sep-01 11:25N 33°46' W 118°15'0 0.0
2017-Sep-01 10:58N 33°46' W 118°15'0 0.0
2017-Sep-01 10:25N 33°46' W 118°15'0 0.0
2017-Sep-01 09:55N 33°46' W 118°15'0 0.0
2017-Sep-01 09:28N 33°46' W 118°15'0 0.0
2017-Sep-01 08:58N 33°46' W 118°15'0 0.0
2017-Sep-01 08:28N 33°46' W 118°15'0 0.0
2017-Sep-01 07:58N 33°46' W 118°15'0 0.0
2017-Sep-01 07:28N 33°46' W 118°15'0 0.0
2017-Sep-01 06:58N 33°46' W 118°15'0 0.0
2017-Sep-01 06:28N 33°46' W 118°15'0 0.0
2017-Sep-01 05:52N 33°46' W 118°15'0 0.0
2017-Sep-01 05:28N 33°46' W 118°15'0 0.0
2017-Sep-01 04:58N 33°46' W 118°15'0 0.0
2017-Sep-01 04:25N 33°46' W 118°15'0 0.0
2017-Sep-01 03:52N 33°46' W 118°15'  

Dump ship's entire track history